Time;durP1;ratioP1;P1;durP2;ratioP2;P2;SDS_P1;SDS_P2;PMS_P1;PMS_P2;Temp;Humidity;BMP_temperature;BMP_pressure;BME280_temperature;BME280_humidity;BME280_pressure;Samples;Min_cycle;Max_cycle;Signal;HPM_P1;HPM_P2
2023/03/30 00:02:21;;;;;;;8.70;7.70;;;;;;;8.60;84.69;100021.75;180936;1260;44139;-88
2023/03/30 00:06:25;;;;;;;10.60;7.20;;;;;;;8.61;84.65;100020.64;181064;1260;44042;-88
2023/03/30 00:10:29;;;;;;;8.80;7.40;;;;;;;8.64;84.56;100020.21;181010;1260;59501;-88
2023/03/30 00:14:36;;;;;;;12.00;9.60;;;;;;;8.66;84.49;100012.82;181005;1260;44213;-88
2023/03/30 00:18:40;;;;;;;12.80;8.60;;;;;;;8.67;84.42;100008.67;180996;1260;43854;-86
2023/03/30 00:22:44;;;;;;;13.50;8.80;;;;;;;8.65;84.64;100001.23;181023;1260;43949;-87
2023/03/30 00:26:48;;;;;;;10.00;7.40;;;;;;;8.62;84.72;99995.20;181059;1260;43849;-88
2023/03/30 00:30:52;;;;;;;12.80;6.80;;;;;;;8.64;84.71;99988.70;181055;1260;58592;-87
2023/03/30 00:34:56;;;;;;;8.50;6.50;;;;;;;8.65;84.86;99989.52;180997;1260;43732;-87
2023/03/30 00:39:00;;;;;;;11.80;8.30;;;;;;;8.65;84.59;99982.67;180943;1260;43800;-88
2023/03/30 00:43:06;;;;;;;13.00;8.00;;;;;;;8.60;84.80;99988.67;181038;1260;43843;-87
2023/03/30 00:47:10;;;;;;;8.10;7.30;;;;;;;8.57;84.99;99987.70;180910;1260;43741;-87
2023/03/30 00:51:14;;;;;;;9.60;7.90;;;;;;;8.52;85.13;99984.54;181052;1260;60154;-86
2023/03/30 00:55:21;;;;;;;9.50;8.20;;;;;;;8.52;85.14;99977.63;180914;1260;44095;-88
2023/03/30 00:59:25;;;;;;;9.80;8.10;;;;;;;8.51;85.05;99970.67;181021;1260;44614;-87
2023/03/30 01:03:44;;;;;;;8.50;6.90;;;;;;;8.46;85.01;99963.61;181024;1260;44260;-87
2023/03/30 01:07:48;;;;;;;9.00;7.10;;;;;;;8.42;84.78;99953.30;180923;1260;43911;-88
2023/03/30 01:11:52;;;;;;;12.80;7.50;;;;;;;8.37;84.64;99954.71;180970;1260;59245;-88
2023/03/30 01:16:02;;;;;;;11.10;7.90;;;;;;;8.38;84.52;99951.45;181053;1260;44161;-89
2023/03/30 01:20:24;;;;;;;6.50;5.20;;;;;;;8.41;84.39;99949.07;180975;1260;44179;-88
2023/03/30 01:25:05;;;;;;;7.70;6.90;;;;;;;8.46;84.42;99947.48;181038;1260;43835;-88
2023/03/30 01:29:11;;;;;;;8.70;5.70;;;;;;;8.51;84.25;99950.70;181079;1260;44056;-89
2023/03/30 01:33:54;;;;;;;8.30;6.30;;;;;;;8.50;84.25;99945.45;181054;1260;60020;-88
2023/03/30 01:38:22;;;;;;;13.50;6.50;;;;;;;8.50;84.13;99931.14;180266;1267;44289;-88
2023/03/30 01:43:11;;;;;;;6.80;6.00;;;;;;;8.57;83.74;99931.32;180145;1267;44280;-87
2023/03/30 01:47:15;;;;;;;9.10;6.30;;;;;;;8.59;83.52;99920.38;179381;1272;43887;-86
2023/03/30 01:51:22;;;;;;;10.00;5.80;;;;;;;8.65;83.30;99912.33;179347;1273;44227;-86
2023/03/30 01:55:35;;;;;;;9.90;8.30;;;;;;;8.66;83.02;99909.86;178986;1273;58093;-86
2023/03/30 01:59:47;;;;;;;6.00;5.50;;;;;;;8.70;82.97;99914.00;179324;1272;44186;-86
2023/03/30 02:03:55;;;;;;;9.60;6.90;;;;;;;8.69;83.00;99907.17;179159;1272;43964;-88
2023/03/30 02:08:06;;;;;;;12.80;7.20;;;;;;;8.69;82.63;99904.52;179208;1273;43844;-88
2023/03/30 02:12:11;;;;;;;10.40;6.20;;;;;;;8.70;82.88;99902.02;179243;1267;44154;-87
2023/03/30 02:16:21;;;;;;;9.50;6.30;;;;;;;8.72;82.70;99900.27;180214;1267;60117;-88
2023/03/30 02:20:24;;;;;;;10.90;8.90;;;;;;;8.72;82.96;99894.44;180635;1261;44126;-87
2023/03/30 02:24:31;;;;;;;8.00;6.00;;;;;;;8.73;83.03;99890.95;180924;1260;43983;-87
2023/03/30 02:28:35;;;;;;;6.90;6.00;;;;;;;8.74;83.20;99884.54;180969;1261;44299;-87
2023/03/30 02:32:45;;;;;;;8.90;5.50;;;;;;;8.77;82.95;99872.64;181047;1261;47972;-87
2023/03/30 02:37:17;;;;;;;7.10;5.30;;;;;;;8.72;82.85;99862.42;181034;1261;59513;-87
2023/03/30 02:41:46;;;;;;;9.30;6.90;;;;;;;8.69;83.12;99849.89;181046;1260;44007;-87
2023/03/30 02:45:51;;;;;;;6.90;6.20;;;;;;;8.79;83.05;99840.14;181068;1260;43993;-87
2023/03/30 02:50:04;;;;;;;9.60;7.40;;;;;;;8.84;82.86;99833.69;181045;1260;44042;-89
2023/03/30 02:54:22;;;;;;;8.40;6.70;;;;;;;8.90;83.41;99824.89;181050;1260;44758;-88
2023/03/30 02:58:35;;;;;;;8.90;6.70;;;;;;;8.91;83.67;99817.22;181050;1260;57283;-89
2023/03/30 03:02:42;;;;;;;7.70;6.90;;;;;;;8.95;83.71;99816.52;181052;1261;44174;-89
2023/03/30 03:06:47;;;;;;;8.20;5.40;;;;;;;8.98;84.20;99815.77;181019;1260;43806;-89
2023/03/30 03:10:50;;;;;;;7.50;5.50;;;;;;;9.03;84.91;99814.46;180987;1260;43884;-89
2023/03/30 03:14:54;;;;;;;9.20;6.90;;;;;;;9.00;85.91;99806.00;181073;1261;43932;-88
2023/03/30 03:18:57;;;;;;;7.80;6.60;;;;;;;8.98;86.28;99790.83;181083;1260;58241;-89
2023/03/30 03:23:01;;;;;;;8.50;6.60;;;;;;;8.96;87.14;99784.81;181037;1260;44731;-89
2023/03/30 03:27:04;;;;;;;8.90;7.90;;;;;;;8.96;87.45;99774.54;181055;1261;44057;-88
2023/03/30 03:31:08;;;;;;;9.10;6.70;;;;;;;8.91;88.08;99746.13;180869;1262;44062;-88
2023/03/30 03:35:11;;;;;;;11.30;6.80;;;;;;;8.87;88.54;99742.89;181043;1261;43717;-88
2023/03/30 03:39:14;;;;;;;7.70;6.10;;;;;;;8.96;88.77;99775.77;180986;1261;60704;-88
2023/03/30 03:43:18;;;;;;;8.40;7.00;;;;;;;8.96;89.15;99807.55;180876;1264;47680;-88
2023/03/30 03:47:21;;;;;;;11.00;6.90;;;;;;;8.99;89.82;99814.08;180993;1260;43786;-88
2023/03/30 03:51:25;;;;;;;8.90;7.00;;;;;;;8.96;89.81;99812.38;181065;1260;43839;-89
2023/03/30 03:55:29;;;;;;;7.40;6.40;;;;;;;8.87;89.96;99799.32;181021;1260;44112;-89
2023/03/30 03:59:32;;;;;;;9.70;6.40;;;;;;;8.78;89.69;99769.48;180950;1261;58232;-89
2023/03/30 04:03:36;;;;;;;11.30;7.20;;;;;;;8.71;89.52;99748.30;180926;1261;44465;-88
2023/03/30 04:07:40;;;;;;;7.80;5.30;;;;;;;8.74;89.18;99737.80;180906;1261;43836;-89
2023/03/30 04:11:43;;;;;;;8.20;6.60;;;;;;;8.77;88.39;99746.58;181022;1261;44108;-86
2023/03/30 04:15:47;;;;;;;13.60;9.60;;;;;;;8.79;88.19;99741.27;181034;1260;44052;-89
2023/03/30 04:19:52;;;;;;;11.90;9.00;;;;;;;8.82;87.79;99740.50;180937;1260;59694;-89
2023/03/30 04:23:56;;;;;;;13.30;11.50;;;;;;;8.85;87.57;99735.64;181058;1261;43845;-89
2023/03/30 04:27:59;;;;;;;14.40;7.30;;;;;;;8.83;87.61;99727.33;180923;1261;44052;-90
2023/03/30 04:32:03;;;;;;;11.50;6.30;;;;;;;8.83;87.66;99722.73;180922;1261;44096;-90
2023/03/30 04:36:07;;;;;;;10.70;7.30;;;;;;;8.84;87.37;99717.35;181016;1260;43942;-90
2023/03/30 04:40:12;;;;;;;15.70;8.80;;;;;;;8.85;87.23;99717.76;180952;1260;58013;-90
2023/03/30 04:44:19;;;;;;;49.10;33.30;;;;;;;8.87;87.47;99715.33;181040;1261;43751;-89
2023/03/30 04:48:23;;;;;;;12.20;9.10;;;;;;;8.92;87.01;99710.67;180824;1261;44278;-90
2023/03/30 04:52:26;;;;;;;12.40;10.10;;;;;;;8.94;86.65;99699.86;181013;1264;44296;-89
2023/03/30 04:56:30;;;;;;;11.40;8.20;;;;;;;8.95;86.33;99696.06;180903;1260;44132;-90
2023/03/30 05:00:34;;;;;;;9.90;7.50;;;;;;;8.91;86.34;99692.89;181027;1261;58162;-90
2023/03/30 05:04:37;;;;;;;13.20;9.70;;;;;;;8.96;86.09;99688.75;180920;1261;44480;-90
2023/03/30 05:08:41;;;;;;;12.00;8.30;;;;;;;9.01;85.69;99683.39;180950;1260;44161;-89
2023/03/30 05:12:44;;;;;;;12.70;8.30;;;;;;;9.03;85.58;99679.33;181099;1261;44144;-89
2023/03/30 05:16:48;;;;;;;10.90;8.80;;;;;;;9.05;86.02;99685.35;181010;1260;44221;-89
2023/03/30 05:20:57;;;;;;;9.20;8.10;;;;;;;9.07;86.55;99691.08;181009;1263;59533;-90
2023/03/30 05:25:01;;;;;;;9.10;8.20;;;;;;;9.09;86.55;99680.77;180911;1262;43891;-90
2023/03/30 05:29:04;;;;;;;10.00;9.00;;;;;;;9.11;86.42;99673.84;180903;1261;43800;-89
2023/03/30 05:33:08;;;;;;;13.40;9.00;;;;;;;9.17;86.83;99690.55;180903;1261;44034;-89
2023/03/30 05:37:12;;;;;;;14.10;10.10;;;;;;;9.23;86.99;99689.27;180897;1261;43889;-89
2023/03/30 05:41:16;;;;;;;17.30;8.80;;;;;;;9.28;86.94;99684.27;180848;1261;58325;-89
2023/03/30 05:45:19;;;;;;;14.90;9.30;;;;;;;9.30;87.16;99684.84;180887;1261;44196;-90
2023/03/30 05:49:22;;;;;;;12.80;9.20;;;;;;;9.36;87.33;99680.80;180885;1261;43901;-90
2023/03/30 05:53:26;;;;;;;14.90;8.50;;;;;;;9.38;87.24;99673.75;180890;1261;44030;-89
2023/03/30 05:57:29;;;;;;;14.70;9.60;;;;;;;9.44;87.47;99662.26;180884;1261;44053;-90
2023/03/30 06:01:33;;;;;;;14.40;9.40;;;;;;;9.49;87.16;99656.30;180906;1261;59677;-90
2023/03/30 06:05:38;;;;;;;15.40;9.90;;;;;;;9.59;87.58;99654.56;180768;1263;44142;-89
2023/03/30 06:09:42;;;;;;;12.60;9.20;;;;;;;9.69;87.47;99658.33;180968;1261;43952;-89
2023/03/30 06:13:47;;;;;;;13.70;10.00;;;;;;;9.79;87.34;99666.81;180915;1261;47428;-89
2023/03/30 06:17:51;;;;;;;16.80;8.50;;;;;;;9.88;86.84;99670.11;180906;1261;43733;-90
2023/03/30 06:21:55;;;;;;;10.30;7.80;;;;;;;9.99;86.91;99672.98;180879;1266;58286;-89
2023/03/30 06:25:59;;;;;;;12.10;9.40;;;;;;;10.04;86.67;99670.41;181047;1261;43743;-89
2023/03/30 06:30:03;;;;;;;13.70;10.40;;;;;;;10.11;86.50;99674.02;180820;1260;44059;-89
2023/03/30 06:34:06;;;;;;;14.20;11.20;;;;;;;10.18;86.79;99671.33;181014;1262;44230;-89
2023/03/30 06:38:10;;;;;;;11.50;10.30;;;;;;;10.29;86.29;99664.89;180907;1260;44082;-90
2023/03/30 06:42:13;;;;;;;13.00;9.90;;;;;;;10.35;86.31;99647.86;180881;1261;60741;-89
2023/03/30 06:46:17;;;;;;;11.60;8.30;;;;;;;10.46;86.09;99638.52;180973;1260;44025;-89
2023/03/30 06:50:20;;;;;;;17.60;11.80;;;;;;;10.62;86.17;99643.15;180943;1261;43950;-89
2023/03/30 06:54:24;;;;;;;15.20;10.80;;;;;;;10.80;85.09;99636.14;180969;1260;43821;-90
2023/03/30 06:58:29;;;;;;;15.50;9.90;;;;;;;10.95;85.23;99632.61;180973;1261;44375;-90
2023/03/30 07:02:32;;;;;;;11.60;9.50;;;;;;;11.16;84.44;99632.63;180977;1261;58355;-90
2023/03/30 07:06:36;;;;;;;12.00;9.90;;;;;;;11.28;83.88;99638.08;180919;1261;44206;-89
2023/03/30 07:10:40;;;;;;;15.30;10.20;;;;;;;11.33;83.25;99636.13;181058;1260;44045;-89
2023/03/30 07:14:43;;;;;;;12.40;7.90;;;;;;;11.43;83.12;99628.64;181023;1261;44691;-90
2023/03/30 07:18:46;;;;;;;12.50;10.20;;;;;;;11.70;83.31;99632.77;181016;1262;44062;-89
2023/03/30 07:22:50;;;;;;;13.60;9.90;;;;;;;12.13;82.53;99611.09;181082;1261;57863;-89
2023/03/30 07:26:54;;;;;;;12.60;10.50;;;;;;;12.57;81.12;99609.01;181010;1262;43743;-89
2023/03/30 07:31:06;;;;;;;13.80;11.00;;;;;;;12.84;79.02;99603.17;181048;1260;43725;-90
2023/03/30 07:35:10;;;;;;;11.30;9.00;;;;;;;12.98;79.72;99597.25;181025;1261;44356;-89
2023/03/30 07:39:13;;;;;;;12.30;9.80;;;;;;;13.12;78.64;99584.09;181010;1260;43955;-89
2023/03/30 07:43:16;;;;;;;14.30;9.40;;;;;;;13.21;78.68;99582.57;181049;1260;58356;-90
2023/03/30 07:47:20;;;;;;;10.40;8.80;;;;;;;13.31;78.93;99584.98;181056;1261;43766;-89
2023/03/30 07:51:23;;;;;;;20.30;10.40;;;;;;;13.33;78.74;99584.45;181016;1260;44020;-87
2023/03/30 07:55:30;;;;;;;15.50;11.70;;;;;;;13.44;79.42;99580.80;181035;1260;44068;-88
2023/03/30 07:59:34;;;;;;;15.50;10.40;;;;;;;13.60;79.75;99580.07;181000;1261;44031;-88
2023/03/30 08:03:38;;;;;;;14.30;9.20;;;;;;;13.72;78.63;99574.63;181032;1261;59723;-87
2023/03/30 08:07:42;;;;;;;14.00;10.10;;;;;;;13.80;78.79;99565.91;181013;1260;44218;-87
2023/03/30 08:11:46;;;;;;;10.30;8.30;;;;;;;13.91;78.62;99562.09;180949;1261;44168;-88
2023/03/30 08:15:51;;;;;;;12.60;8.60;;;;;;;14.22;79.39;99539.40;181034;1264;44121;-87
2023/03/30 08:19:57;;;;;;;11.80;9.20;;;;;;;14.59;78.10;99535.58;181040;1261;44106;-88
2023/03/30 08:24:01;;;;;;;13.00;7.60;;;;;;;14.92;77.49;99536.21;181005;1260;58574;-88
2023/03/30 08:28:04;;;;;;;11.40;8.70;;;;;;;15.18;76.29;99534.78;181046;1261;44196;-88
2023/03/30 08:32:08;;;;;;;9.40;7.80;;;;;;;15.42;76.24;99534.69;181032;1261;44046;-88
2023/03/30 08:36:11;;;;;;;11.50;8.30;;;;;;;15.64;76.47;99522.76;180903;1261;43946;-88
2023/03/30 08:40:16;;;;;;;11.90;9.10;;;;;;;15.74;76.14;99516.27;181016;1261;44090;-88
2023/03/30 08:44:26;;;;;;;10.00;6.60;;;;;;;15.78;75.75;99504.88;180983;1261;60257;-88
2023/03/30 08:48:36;;;;;;;8.90;6.60;;;;;;;15.89;75.59;99504.68;180938;1261;44001;-88
2023/03/30 08:52:40;;;;;;;14.30;7.60;;;;;;;15.92;76.25;99506.67;181080;1260;44160;-88
2023/03/30 08:56:58;;;;;;;13.30;8.60;;;;;;;15.91;76.13;99498.20;181052;1260;43709;-88
2023/03/30 09:01:26;;;;;;;8.20;5.40;;;;;;;15.86;77.05;99494.30;180989;1261;44169;-87
2023/03/30 09:05:36;;;;;;;9.30;6.30;;;;;;;15.81;77.31;99488.67;181053;1261;58907;-88
2023/03/30 09:09:43;;;;;;;9.50;5.80;;;;;;;16.07;77.12;99476.01;180906;1260;44132;-88
2023/03/30 09:13:50;;;;;;;10.70;7.10;;;;;;;16.26;75.04;99463.88;181049;1260;43818;-87
2023/03/30 09:18:21;;;;;;;9.00;5.80;;;;;;;16.24;74.96;99455.77;180984;1260;44067;-87
2023/03/30 09:22:31;;;;;;;8.20;6.30;;;;;;;16.23;75.05;99447.95;181090;1260;43850;-87
2023/03/30 09:26:54;;;;;;;8.70;6.30;;;;;;;16.22;74.00;99450.92;181038;1260;59618;-87
2023/03/30 09:31:15;;;;;;;9.80;6.80;;;;;;;16.20;73.72;99445.05;180716;1261;235850;-87
2023/03/30 09:35:25;;;;;;;8.20;6.10;;;;;;;16.22;74.65;99432.21;180993;1260;43984;-87
2023/03/30 09:39:32;;;;;;;6.50;4.90;;;;;;;16.22;74.83;99430.73;180921;1260;43793;-87
2023/03/30 09:43:45;;;;;;;8.20;6.20;;;;;;;16.07;74.45;99430.84;180964;1260;43822;-87
2023/03/30 09:47:48;;;;;;;11.50;7.30;;;;;;;15.97;72.77;99436.33;181046;1260;58394;-88
2023/03/30 09:51:59;;;;;;;7.60;6.00;;;;;;;16.00;75.26;99437.31;181092;1260;43854;-87
2023/03/30 09:56:15;;;;;;;13.40;8.20;;;;;;;16.25;75.92;99432.88;181035;1260;43963;-88
2023/03/30 10:00:28;;;;;;;8.90;7.50;;;;;;;16.48;74.16;99429.80;181057;1260;44007;-87
2023/03/30 10:04:31;;;;;;;7.20;6.10;;;;;;;16.77;73.55;99429.64;181112;1260;43705;-87
2023/03/30 10:08:55;;;;;;;8.80;7.00;;;;;;;16.74;72.52;99427.66;180906;1260;60055;-87
2023/03/30 10:13:05;;;;;;;8.60;6.20;;;;;;;16.83;72.40;99418.98;181038;1260;44231;-87
2023/03/30 10:17:20;;;;;;;13.40;7.50;;;;;;;16.96;71.12;99418.77;181102;1260;43737;-86
2023/03/30 10:21:26;;;;;;;12.60;7.10;;;;;;;16.95;71.09;99414.65;180980;1260;44121;-87
2023/03/30 10:25:32;;;;;;;11.20;7.60;;;;;;;16.85;71.17;99415.11;181024;1260;44138;-87
2023/03/30 10:29:36;;;;;;;11.40;7.50;;;;;;;16.75;71.37;99418.67;180982;1260;58047;-87
2023/03/30 10:33:42;;;;;;;11.20;6.90;;;;;;;16.60;71.33;99424.30;180982;1260;44149;-87
2023/03/30 10:37:48;;;;;;;12.40;5.90;;;;;;;16.56;71.79;99422.94;181005;1260;43937;-88
2023/03/30 10:41:53;;;;;;;9.20;8.00;;;;;;;16.52;73.64;99436.30;180953;1260;43866;-87
2023/03/30 10:46:21;;;;;;;8.90;6.80;;;;;;;16.38;75.12;99440.45;181113;1260;44015;-87
2023/03/30 10:50:45;;;;;;;8.20;7.20;;;;;;;16.23;76.09;99439.70;181032;1260;59408;-87
2023/03/30 10:55:09;;;;;;;9.40;8.20;;;;;;;16.04;76.53;99436.27;181119;1260;44210;-88
2023/03/30 10:59:22;;;;;;;10.20;7.40;;;;;;;15.82;78.16;99441.50;180988;1260;44083;-87
2023/03/30 11:03:31;;;;;;;10.20;8.00;;;;;;;15.63;80.03;99439.78;181110;1260;44149;-87
2023/03/30 11:07:42;;;;;;;8.10;7.00;;;;;;;15.46;81.52;99444.96;180989;1260;44187;-87
2023/03/30 11:11:54;;;;;;;13.70;9.30;;;;;;;15.36;82.67;99449.98;180916;1260;58814;-87
2023/03/30 11:16:34;;;;;;;9.50;8.30;;;;;;;15.28;82.15;99451.97;181040;1260;43770;-87
2023/03/30 11:20:58;;;;;;;9.20;6.40;;;;;;;15.22;82.52;99455.90;181099;1260;43784;-87
2023/03/30 11:25:14;;;;;;;11.20;7.70;;;;;;;15.13;82.09;99463.39;181090;1260;44231;-87
2023/03/30 11:29:26;;;;;;;10.10;7.20;;;;;;;15.08;82.46;99473.55;180926;1260;44076;-87
2023/03/30 11:33:42;;;;;;;12.80;8.10;;;;;;;14.98;83.74;99482.67;181059;1260;58645;-87
2023/03/30 11:38:08;;;;;;;10.50;8.80;;;;;;;14.86;86.22;99486.01;181001;1260;46754;-87
2023/03/30 11:42:16;;;;;;;10.80;9.00;;;;;;;14.84;89.12;99482.09;181035;1260;44040;-87
2023/03/30 11:46:29;;;;;;;17.50;9.40;;;;;;;14.98;91.90;99485.34;181045;1260;44516;-87
2023/03/30 11:50:44;;;;;;;13.40;9.90;;;;;;;15.12;91.77;99483.94;181009;1260;43822;-87
2023/03/30 11:55:15;;;;;;;10.40;8.40;;;;;;;15.22;89.46;99480.05;181056;1260;58302;-87
2023/03/30 11:59:48;;;;;;;14.20;9.00;;;;;;;15.18;88.15;99484.42;181070;1260;44212;-87
2023/03/30 12:04:07;;;;;;;9.70;8.40;;;;;;;15.06;86.95;99478.38;181134;1260;44244;-87
2023/03/30 12:08:38;;;;;;;10.40;8.10;;;;;;;15.05;86.39;99462.59;181032;1260;44213;-87
2023/03/30 12:12:44;;;;;;;10.10;8.80;;;;;;;15.02;86.71;99461.20;181126;1260;43730;-86
2023/03/30 12:16:53;;;;;;;8.80;7.60;;;;;;;15.05;86.97;99463.05;181026;1260;59711;-88
2023/03/30 12:21:19;;;;;;;12.50;8.10;;;;;;;15.13;87.67;99454.23;180958;1260;43815;-88
2023/03/30 12:25:31;;;;;;;14.60;8.30;;;;;;;15.18;87.43;99449.36;181068;1260;44125;-87
2023/03/30 12:29:50;;;;;;;9.00;5.80;;;;;;;15.19;87.61;99451.06;181084;1260;44013;-87
2023/03/30 12:34:06;;;;;;;5.60;3.70;;;;;;;15.26;86.17;99445.23;181006;1260;43896;-87
2023/03/30 12:38:15;;;;;;;12.80;6.80;;;;;;;15.48;87.28;99443.73;180919;1260;58315;-88
2023/03/30 12:42:25;;;;;;;9.50;6.60;;;;;;;15.62;86.12;99437.41;180943;1260;43794;-88
2023/03/30 12:46:57;;;;;;;9.70;5.90;;;;;;;15.68;86.26;99437.92;181100;1260;43937;-87
2023/03/30 12:51:12;;;;;;;7.70;5.00;;;;;;;15.74;86.25;99430.23;181127;1260;44651;-88
2023/03/30 12:55:36;;;;;;;12.70;6.00;;;;;;;15.84;86.98;99424.45;181097;1260;43880;-88
2023/03/30 12:59:55;;;;;;;7.70;5.10;;;;;;;15.91;88.02;99411.48;181064;1260;59680;-88
2023/03/30 13:04:06;;;;;;;5.80;5.10;;;;;;;15.91;87.65;99410.73;181124;1260;46434;-88
2023/03/30 13:08:40;;;;;;;6.30;5.00;;;;;;;16.02;88.22;99409.83;180918;1260;44134;-88
2023/03/30 13:12:48;;;;;;;3.40;2.70;;;;;;;16.08;87.23;99403.54;181036;1260;43783;-88
2023/03/30 13:16:51;;;;;;;5.30;3.80;;;;;;;16.04;85.03;99400.45;181091;1260;44084;-88
2023/03/30 13:20:55;;;;;;;6.50;3.00;;;;;;;16.01;83.76;99396.20;181034;1260;58348;-88
2023/03/30 13:25:20;;;;;;;3.10;2.10;;;;;;;16.05;84.26;99392.30;180999;1260;43909;-88
2023/03/30 13:29:29;;;;;;;6.10;2.40;;;;;;;15.94;81.92;99384.98;181043;1260;43850;-88
2023/03/30 13:33:37;;;;;;;3.30;2.40;;;;;;;15.85;81.38;99373.20;181088;1261;46672;-86
2023/03/30 13:38:14;;;;;;;4.60;2.70;;;;;;;15.82;82.02;99356.45;180776;1260;43860;-87
2023/03/30 13:42:41;;;;;;;7.90;3.70;;;;;;;15.76;82.27;99338.56;180882;1260;59210;-87
2023/03/30 13:47:05;;;;;;;5.00;4.40;;;;;;;15.78;85.09;99325.77;180961;1260;43939;-88
2023/03/30 13:51:15;;;;;;;7.20;5.00;;;;;;;15.74;86.75;99312.67;180976;1260;43883;-89
2023/03/30 13:55:31;;;;;;;8.30;4.90;;;;;;;15.73;86.66;99298.27;180857;1260;44175;-89
2023/03/30 13:59:41;;;;;;;5.50;3.10;;;;;;;15.77;84.20;99295.73;180837;1260;43821;-88
2023/03/30 14:03:59;;;;;;;16.30;7.70;;;;;;;15.80;83.26;99288.22;180800;1260;59444;-87
2023/03/30 14:08:09;;;;;;;18.70;10.90;;;;;;;15.78;83.87;99285.96;180740;1260;44260;-86
2023/03/30 14:12:13;;;;;;;8.10;6.20;;;;;;;15.78;83.61;99289.68;180787;1261;43789;-86
2023/03/30 14:16:21;;;;;;;7.00;3.90;;;;;;;15.73;83.78;99289.54;180885;1260;44018;-87
2023/03/30 14:20:45;;;;;;;8.90;5.80;;;;;;;15.69;83.49;99287.13;180780;1260;43885;-87
2023/03/30 14:24:57;;;;;;;10.60;6.20;;;;;;;15.67;83.63;99287.59;180894;1260;57552;-87
2023/03/30 14:29:13;;;;;;;6.10;4.40;;;;;;;15.70;83.79;99295.05;180787;1260;43703;-87
2023/03/30 14:33:33;;;;;;;4.10;3.50;;;;;;;15.78;84.05;99293.80;180873;1260;43772;-86
2023/03/30 14:37:37;;;;;;;6.70;4.30;;;;;;;16.04;84.62;99302.69;180810;1260;43835;-86
2023/03/30 14:41:40;;;;;;;3.80;3.30;;;;;;;16.25;83.03;99307.88;180815;1261;43842;-86
2023/03/30 14:45:44;;;;;;;5.80;2.70;;;;;;;16.37;81.53;99306.71;180806;1260;58275;-87
2023/03/30 14:49:50;;;;;;;6.80;5.20;;;;;;;16.35;81.27;99300.20;180765;1260;43919;-87
2023/03/30 14:53:54;;;;;;;4.40;3.50;;;;;;;16.31;81.07;99295.73;180710;1260;43824;-87
2023/03/30 14:57:58;;;;;;;3.10;2.60;;;;;;;16.20;81.03;99288.91;180708;1260;44000;-87
2023/03/30 15:02:02;;;;;;;7.70;3.50;;;;;;;16.11;81.30;99283.07;180820;1260;43757;-87
2023/03/30 15:06:07;;;;;;;4.50;3.50;;;;;;;15.94;81.86;99271.52;180649;1260;59204;-87
2023/03/30 15:10:21;;;;;;;6.10;3.40;;;;;;;15.79;82.86;99277.23;180794;1260;46470;-88
2023/03/30 15:14:26;;;;;;;7.40;5.30;;;;;;;15.59;83.60;99271.55;180918;1260;44512;-89
2023/03/30 15:18:32;;;;;;;6.90;4.40;;;;;;;15.54;84.19;99265.36;181049;1261;43760;-88
2023/03/30 15:22:43;;;;;;;6.50;5.70;;;;;;;15.45;84.66;99265.33;181025;1260;43805;-90
2023/03/30 15:26:48;;;;;;;17.00;9.20;;;;;;;15.37;85.83;99269.45;181010;1260;58266;-91
2023/03/30 15:30:53;;;;;;;15.00;7.80;;;;;;;15.37;86.77;99254.14;181228;1260;43834;-90
2023/03/30 15:35:13;;;;;;;8.10;5.40;;;;;;;15.32;86.64;99251.10;181058;1260;43959;-91
2023/03/30 15:39:26;;;;;;;8.30;5.60;;;;;;;15.24;85.92;99239.70;181096;1260;44204;-91
2023/03/30 15:43:32;;;;;;;6.10;3.70;;;;;;;15.21;85.48;99240.23;181046;1260;44232;-91
2023/03/30 15:47:37;;;;;;;4.80;3.40;;;;;;;15.15;85.96;99237.36;181088;1260;57277;-91
2023/03/30 15:51:52;;;;;;;3.50;2.20;;;;;;;15.07;86.46;99229.08;181081;1260;44088;-91
2023/03/30 15:55:58;;;;;;;4.30;2.70;;;;;;;14.96;86.79;99227.23;181065;1261;43871;-91
2023/03/30 16:00:11;;;;;;;6.50;2.60;;;;;;;14.90;87.21;99219.27;180962;1260;43968;-90
2023/03/30 16:04:17;;;;;;;4.40;3.00;;;;;;;14.75;87.14;99213.18;181117;1260;44066;-91
2023/03/30 16:08:21;;;;;;;4.00;3.60;;;;;;;14.79;87.09;99208.94;181075;1260;58030;-91
2023/03/30 16:12:28;;;;;;;4.30;3.60;;;;;;;14.81;86.07;99213.66;180979;1261;44178;-91
2023/03/30 16:16:33;;;;;;;4.60;2.70;;;;;;;14.91;86.29;99212.30;181028;1260;44356;-90
2023/03/30 16:20:37;;;;;;;4.70;3.80;;;;;;;15.02;86.94;99210.64;181067;1260;43985;-91
2023/03/30 16:24:42;;;;;;;3.40;3.10;;;;;;;15.13;86.64;99201.54;181080;1260;44480;-90
2023/03/30 16:28:49;;;;;;;5.80;3.50;;;;;;;15.33;86.03;99188.81;181174;1260;59567;-91
2023/03/30 16:32:53;;;;;;;5.40;3.90;;;;;;;15.48;84.98;99188.39;181062;1260;43777;-90
2023/03/30 16:36:57;;;;;;;6.60;3.80;;;;;;;15.55;84.27;99196.45;181130;1260;43872;-91
2023/03/30 16:41:02;;;;;;;4.40;3.50;;;;;;;15.53;84.16;99195.77;181049;1260;44121;-90
2023/03/30 16:45:07;;;;;;;5.20;3.90;;;;;;;15.44;82.66;99199.84;180991;1260;44034;-91
2023/03/30 16:49:16;;;;;;;5.80;3.30;;;;;;;15.33;80.19;99199.77;181080;1260;58208;-90
2023/03/30 16:53:20;;;;;;;3.70;2.70;;;;;;;15.26;79.45;99204.31;181023;1260;43797;-90
2023/03/30 16:57:24;;;;;;;3.80;3.00;;;;;;;15.15;79.46;99206.66;181053;1260;44006;-90
2023/03/30 17:01:29;;;;;;;3.80;2.80;;;;;;;15.06;79.74;99213.77;181043;1260;43771;-90
2023/03/30 17:05:32;;;;;;;5.90;3.20;;;;;;;14.92;79.99;99224.05;181142;1260;43817;-90
2023/03/30 17:09:36;;;;;;;5.90;4.10;;;;;;;14.80;80.86;99238.39;181064;1260;60119;-90
2023/03/30 17:13:41;;;;;;;8.20;6.10;;;;;;;14.66;83.35;99247.88;181029;1260;44142;-89
2023/03/30 17:17:46;;;;;;;11.80;8.10;;;;;;;14.38;85.61;99237.14;181112;1260;44055;-90
2023/03/30 17:21:50;;;;;;;7.70;5.70;;;;;;;14.14;86.72;99225.00;181033;1260;43930;-90
2023/03/30 17:25:57;;;;;;;7.60;6.40;;;;;;;13.95;87.37;99232.73;181081;1260;44177;-91
2023/03/30 17:30:00;;;;;;;;;;;;;;;13.72;88.26;99247.70;180931;1260;60640;-90
2023/03/30 17:34:05;;;;;;;7.80;5.80;;;;;;;13.56;88.95;99257.98;181119;1260;47110;-91
2023/03/30 17:38:10;;;;;;;6.50;4.40;;;;;;;13.38;89.91;99266.72;181087;1260;44040;-91
2023/03/30 17:42:17;;;;;;;8.50;4.80;;;;;;;13.28;90.52;99261.41;181028;1260;43951;-90
2023/03/30 17:46:23;;;;;;;5.30;3.90;;;;;;;13.14;91.65;99259.96;181180;1260;46422;-91
2023/03/30 17:50:48;;;;;;;6.70;4.00;;;;;;;13.10;92.08;99258.42;181210;1260;58708;-91
2023/03/30 17:54:52;;;;;;;7.50;5.30;;;;;;;13.11;91.96;99260.09;181112;1260;44174;-91
2023/03/30 18:03:21;;;;;;;5.40;3.80;;;;;;;13.24;91.31;99269.10;169155;1256;44643;-90
2023/03/30 18:08:13;;;;;;;5.90;4.80;;;;;;;13.29;91.08;99291.02;181205;1260;43862;-89
2023/03/30 18:12:16;;;;;;;4.90;3.60;;;;;;;13.35;90.75;99311.42;180984;1260;57793;-90
2023/03/30 18:16:23;;;;;;;4.40;2.70;;;;;;;13.42;92.20;99353.77;180860;1264;44186;-87
2023/03/30 18:20:31;;;;;;;;;;;;;;;13.33;94.90;99351.31;180820;1261;43863;-87
2023/03/30 18:24:34;;;;;;;7.20;2.20;;;;;;;13.07;97.47;99362.08;180915;1261;43848;-88
2023/03/30 18:28:41;;;;;;;3.10;1.80;;;;;;;12.85;98.61;99357.54;180835;1260;43830;-88
2023/03/30 18:32:44;;;;;;;5.00;2.00;;;;;;;12.63;100.00;99371.55;180854;1261;58638;-87
2023/03/30 18:36:49;;;;;;;4.00;2.00;;;;;;;12.48;100.00;99378.80;180982;1260;43784;-87
2023/03/30 18:40:56;;;;;;;4.10;2.30;;;;;;;12.59;100.00;99377.29;180808;1261;44192;-88
2023/03/30 18:45:00;;;;;;;2.40;2.00;;;;;;;12.55;100.00;99387.30;180755;1260;43858;-86
2023/03/30 18:49:03;;;;;;;2.60;2.00;;;;;;;12.52;100.00;99392.19;180808;1261;44262;-87
2023/03/30 18:53:12;;;;;;;4.40;2.50;;;;;;;12.54;100.00;99385.66;180687;1260;60140;-87
2023/03/30 18:57:15;;;;;;;5.30;2.90;;;;;;;12.45;100.00;99402.73;180838;1260;43921;-89
2023/03/30 19:01:19;;;;;;;3.40;2.20;;;;;;;12.34;100.00;99402.77;180742;1261;44053;-88
2023/03/30 19:05:25;;;;;;;3.20;2.30;;;;;;;12.14;100.00;99400.50;180849;1260;43975;-88
2023/03/30 19:09:28;;;;;;;3.10;2.10;;;;;;;12.11;100.00;99395.68;180887;1261;43840;-88
2023/03/30 19:13:45;;;;;;;4.20;2.70;;;;;;;12.02;100.00;99397.68;180705;1260;58365;-88
2023/03/30 19:17:50;;;;;;;3.00;2.10;;;;;;;11.95;100.00;99395.17;180678;1262;43935;-86
2023/03/30 19:21:56;;;;;;;2.00;1.60;;;;;;;11.86;100.00;99406.76;180620;1262;44187;-87